LDRI/RJK METAR and TAF weather

Enter ICAO airport designator
Station Type Date Time Source
LDRI METAR 2019/02/21 11:30 UTC NOAA

LDRI 211130Z VRB04KT 8000 NSC 14/03 Q1027


Station Type Date Time Source
LDRI Decoded METAR 2019/02/21 11:30 UTC NOAA

Rijeka / Omisalj, Croatia (LDRI) 45-13N 014-35E
Feb 21, 2019 - 06:30 AM EST / 2019.02.21 1130 UTC
Wind: Variable at 5 MPH (4 KT):0
Visibility: 4 mile(s):0
Temperature: 57 F (14 C)
Dew Point: 37 F (3 C)
Relative Humidity: 47%
Pressure (altimeter): 30.33 in. Hg (1027 hPa)
ob: LDRI 211130Z VRB04KT 8000 NSC 14/03 Q1027
cycle: 11

Station Type Date Time Source
LDRI TAF 2019/02/21 12:29 UTC NOAA

TAF LDRI 211125Z 2112/2212 VRB02KT 8000 NSC TX14/2112Z TN06/2206Z PROB40
TEMPO 2118/2208 3000 BR PROB30
TEMPO 2209/2212 32008KT


Example: see airport list